createdAt,value
2018-04-12T00:02:13.857Z,4.40
2018-04-12T00:05:17.035Z,3.60
2018-04-12T00:08:20.425Z,3.97
2018-04-12T00:11:23.593Z,3.50
2018-04-12T00:14:26.941Z,2.93
2018-04-12T00:17:30.313Z,3.60
2018-04-12T00:20:33.615Z,3.90
2018-04-12T00:23:36.920Z,4.50
2018-04-12T00:26:40.136Z,4.47
2018-04-12T00:29:43.550Z,6.70
2018-04-12T00:32:46.817Z,4.40
2018-04-12T00:35:50.308Z,4.83
2018-04-12T00:38:53.920Z,4.10
2018-04-12T00:41:57.423Z,4.20
2018-04-12T00:45:00.722Z,5.47
2018-04-12T00:48:04.320Z,5.03
2018-04-12T00:51:07.514Z,4.77
2018-04-12T00:54:10.834Z,6.63
2018-04-12T00:57:14.213Z,6.27
2018-04-12T01:00:17.514Z,8.27
2018-04-12T01:03:20.800Z,6.13
2018-04-12T01:06:24.223Z,4.87
2018-04-12T01:09:27.445Z,9.40
2018-04-12T01:12:30.588Z,4.70
2018-04-12T01:15:33.949Z,5.73
2018-04-12T01:18:37.287Z,6.33
2018-04-12T01:21:40.512Z,5.33
2018-04-12T01:24:43.703Z,5.40
2018-04-12T01:27:47.005Z,5.33
2018-04-12T01:30:50.297Z,7.83
2018-04-12T01:33:53.565Z,5.20
2018-04-12T01:36:56.687Z,5.60
2018-04-12T01:39:59.984Z,8.23
2018-04-12T01:43:03.271Z,5.20
2018-04-12T01:46:06.583Z,5.23
2018-04-12T01:49:09.892Z,5.40
2018-04-12T01:52:13.147Z,4.80
2018-04-12T01:55:16.376Z,5.43
2018-04-12T01:58:19.651Z,4.77
2018-04-12T02:01:22.944Z,4.17
2018-04-12T02:04:26.353Z,6.33
2018-04-12T02:07:29.587Z,6.33
2018-04-12T02:10:32.835Z,6.07
2018-04-12T02:13:36.232Z,5.43
2018-04-12T02:16:39.565Z,5.23
2018-04-12T02:19:42.840Z,6.77
2018-04-12T02:22:46.182Z,6.00
2018-04-12T02:25:49.604Z,8.87
2018-04-12T02:28:52.961Z,6.83
2018-04-12T02:31:56.164Z,9.63
2018-04-12T02:34:59.550Z,6.17
2018-04-12T02:38:02.757Z,8.37
2018-04-12T02:41:06.017Z,6.93
2018-04-12T02:44:09.317Z,6.93
2018-04-12T02:47:12.548Z,7.33
2018-04-12T02:50:15.829Z,8.90
2018-04-12T02:53:19.145Z,9.93
2018-04-12T02:56:22.498Z,9.27
2018-04-12T02:59:25.809Z,8.10
2018-04-12T03:02:29.135Z,8.50
2018-04-12T03:05:32.507Z,10.47
2018-04-12T03:08:35.792Z,8.17
2018-04-12T03:11:39.206Z,6.80
2018-04-12T03:14:42.487Z,7.63
2018-04-12T03:17:45.708Z,8.67
2018-04-12T03:20:48.983Z,6.70
2018-04-12T03:23:52.220Z,8.17
2018-04-12T03:26:56.736Z,8.60
2018-04-12T03:30:00.009Z,8.07
2018-04-12T03:33:03.192Z,9.83
2018-04-12T03:36:06.648Z,8.33
2018-04-12T03:39:09.885Z,7.47
2018-04-12T03:42:13.076Z,8.93
2018-04-12T03:45:16.175Z,9.00
2018-04-12T03:48:19.739Z,11.30
2018-04-12T03:51:23.089Z,8.77
2018-04-12T03:54:26.494Z,10.93
2018-04-12T03:57:29.716Z,9.07
2018-04-12T04:00:33.077Z,8.67
2018-04-12T04:03:36.374Z,10.17
2018-04-12T04:06:39.599Z,7.57
2018-04-12T04:09:42.865Z,10.50
2018-04-12T04:12:46.152Z,9.97
2018-04-12T04:16:00.915Z,9.57
2018-04-12T04:20:13.370Z,10.73
2018-04-12T04:23:16.704Z,12.70
2018-04-12T04:26:19.956Z,27.20
2018-04-12T04:29:23.257Z,24.17
2018-04-12T04:32:27.584Z,15.37
2018-04-12T04:35:30.703Z,17.00
2018-04-12T04:38:33.965Z,14.87
2018-04-12T04:41:37.200Z,13.77
2018-04-12T04:44:40.581Z,12.83
2018-04-12T04:47:43.830Z,15.87
2018-04-12T04:50:47.151Z,13.33
2018-04-12T04:53:50.434Z,14.03
2018-04-12T04:56:53.668Z,12.33
2018-04-12T04:59:57.129Z,13.07
2018-04-12T05:03:00.428Z,13.73
2018-04-12T05:06:03.740Z,16.30
2018-04-12T05:09:07.157Z,13.43
2018-04-12T05:12:10.619Z,15.10
2018-04-12T05:15:13.932Z,24.83
2018-04-12T05:18:17.361Z,27.97
2018-04-12T05:21:20.769Z,17.50
2018-04-12T05:24:24.015Z,16.93
2018-04-12T05:27:27.784Z,16.70
2018-04-12T05:30:31.176Z,14.43
2018-04-12T05:33:34.457Z,13.80
2018-04-12T05:36:37.761Z,17.23
2018-04-12T05:39:41.182Z,13.83
2018-04-12T05:42:44.561Z,18.17
2018-04-12T05:45:47.851Z,15.63
2018-04-12T05:48:51.270Z,21.67
2018-04-12T05:51:54.687Z,17.37
2018-04-12T05:54:57.914Z,22.37
2018-04-12T05:58:01.250Z,19.77
2018-04-12T06:01:04.486Z,24.43
2018-04-12T06:04:07.793Z,14.60
2018-04-12T06:07:11.163Z,25.70
2018-04-12T06:10:14.516Z,20.57
2018-04-12T06:13:17.828Z,20.70
2018-04-12T06:16:21.196Z,18.70
2018-04-12T06:19:24.508Z,23.77
2018-04-12T06:22:27.777Z,21.60
2018-04-12T06:25:30.990Z,17.90
2018-04-12T06:28:34.297Z,21.73
2018-04-12T06:31:37.581Z,20.17
2018-04-12T06:34:40.786Z,16.17
2018-04-12T06:37:44.058Z,19.73
2018-04-12T06:40:47.421Z,15.37
2018-04-12T06:43:50.715Z,16.30
2018-04-12T06:46:54.419Z,13.47
2018-04-12T06:49:57.578Z,13.43
2018-04-12T06:53:00.852Z,13.13
2018-04-12T06:56:04.210Z,17.57
2018-04-12T06:59:07.496Z,13.50
2018-04-12T07:02:10.648Z,13.07
2018-04-12T07:05:14.103Z,14.97
2018-04-12T07:08:17.477Z,13.63
2018-04-12T07:11:20.668Z,11.70
2018-04-12T07:14:23.980Z,14.70
2018-04-12T07:17:27.393Z,15.10
2018-04-12T07:20:30.709Z,12.77
2018-04-12T07:23:34.000Z,11.60
2018-04-12T07:26:37.390Z,14.20
2018-04-12T07:29:41.693Z,12.23
2018-04-12T07:32:45.005Z,13.17
2018-04-12T07:35:48.192Z,10.50
2018-04-12T07:38:51.484Z,12.80
2018-04-12T07:41:54.789Z,11.67
2018-04-12T07:44:58.146Z,11.97
2018-04-12T07:48:01.446Z,15.53
2018-04-12T07:51:04.890Z,11.20
2018-04-12T07:54:08.427Z,14.70
2018-04-12T07:57:11.756Z,10.33
2018-04-12T08:00:15.083Z,12.87
2018-04-12T08:03:18.428Z,14.07
2018-04-12T08:06:21.848Z,11.20
2018-04-12T08:09:25.274Z,12.80
2018-04-12T08:12:28.829Z,10.73
2018-04-12T08:15:32.189Z,13.00
2018-04-12T08:18:35.610Z,9.33
2018-04-12T08:21:38.874Z,11.67
2018-04-12T08:24:42.278Z,12.43
2018-04-12T08:27:45.585Z,14.63
2018-04-12T08:30:48.888Z,9.10
2018-04-12T08:33:52.288Z,11.87
2018-04-12T08:36:55.702Z,13.63
2018-04-12T08:39:58.966Z,9.00
2018-04-12T08:43:02.434Z,12.70
2018-04-12T08:46:05.777Z,9.53
2018-04-12T08:49:09.069Z,12.20
2018-04-12T08:52:12.412Z,9.30
2018-04-12T08:55:15.732Z,12.43
2018-04-12T08:58:19.172Z,9.20
2018-04-12T09:01:22.535Z,11.87
2018-04-12T09:04:25.776Z,12.60
2018-04-12T09:07:29.017Z,12.23
2018-04-12T09:10:32.361Z,7.67
2018-04-12T09:13:35.732Z,10.17
2018-04-12T09:16:38.977Z,11.73
2018-04-12T09:19:42.256Z,9.73
2018-04-12T09:22:45.629Z,9.67
2018-04-12T09:25:48.955Z,15.67
2018-04-12T09:28:52.265Z,13.63
2018-04-12T09:31:55.762Z,8.77
2018-04-12T09:34:59.026Z,14.90
2018-04-12T09:38:02.266Z,8.37
2018-04-12T09:41:05.636Z,8.07
2018-04-12T09:44:08.942Z,11.97
2018-04-12T09:47:12.246Z,11.43
2018-04-12T09:50:15.429Z,10.47
2018-04-12T09:53:18.740Z,10.60
2018-04-12T09:56:22.026Z,8.67
2018-04-12T09:59:25.424Z,9.63
2018-04-12T10:02:28.868Z,14.40
2018-04-12T10:05:32.225Z,8.83
2018-04-12T10:08:39.482Z,11.73
2018-04-12T10:11:42.842Z,9.43
2018-04-12T10:14:46.205Z,7.87
2018-04-12T10:17:49.524Z,12.63
2018-04-12T10:20:52.913Z,12.57
2018-04-12T10:23:57.028Z,21.23
2018-04-12T10:27:00.269Z,18.30
2018-04-12T10:30:03.720Z,17.60
2018-04-12T10:33:06.923Z,18.13
2018-04-12T10:36:10.228Z,7.57
2018-04-12T10:39:13.618Z,7.60
2018-04-12T10:42:17.003Z,7.50
2018-04-12T10:45:20.261Z,8.47
2018-04-12T10:48:23.475Z,9.13
2018-04-12T10:51:26.655Z,7.30
2018-04-12T10:54:29.967Z,9.10
2018-04-12T10:57:33.452Z,14.40
2018-04-12T11:00:36.815Z,12.23
2018-04-12T11:03:40.063Z,11.47
2018-04-12T11:06:43.391Z,9.93
2018-04-12T11:09:46.798Z,9.03
2018-04-12T11:12:50.092Z,9.13
2018-04-12T11:15:54.400Z,8.17
2018-04-12T11:18:57.703Z,9.60
2018-04-12T11:22:00.975Z,9.50
2018-04-12T11:25:04.956Z,10.47
2018-04-12T11:28:08.190Z,9.90
2018-04-12T11:31:11.507Z,13.27
2018-04-12T11:34:14.829Z,12.63
2018-04-12T11:37:18.204Z,10.63
2018-04-12T11:40:21.535Z,10.23
2018-04-12T11:43:25.829Z,12.13
2018-04-12T11:46:29.260Z,9.93
2018-04-12T11:49:32.639Z,10.33
2018-04-12T11:52:36.325Z,11.70
2018-04-12T11:55:39.655Z,8.47
2018-04-12T11:58:43.013Z,10.13
2018-04-12T12:01:46.318Z,10.73
2018-04-12T12:04:49.576Z,9.40
2018-04-12T12:07:52.856Z,11.37
2018-04-12T12:10:56.225Z,9.03
2018-04-12T12:13:59.511Z,10.17
2018-04-12T12:17:02.783Z,9.67
2018-04-12T12:20:06.077Z,10.20
2018-04-12T12:23:09.413Z,8.47
2018-04-12T12:26:12.812Z,6.77
2018-04-12T12:29:15.957Z,7.67
2018-04-12T12:32:19.495Z,12.33
2018-04-12T12:35:23.256Z,6.37
2018-04-12T12:38:26.595Z,9.10
2018-04-12T12:41:30.046Z,9.17
2018-04-12T12:44:33.588Z,8.07
2018-04-12T12:47:36.905Z,8.50
2018-04-12T12:50:40.704Z,9.53
2018-04-12T12:53:44.106Z,8.33
2018-04-12T12:56:47.417Z,6.97
2018-04-12T12:59:50.788Z,13.90
2018-04-12T13:02:54.192Z,7.30
2018-04-12T13:05:57.638Z,9.57
2018-04-12T13:09:00.914Z,8.07
2018-04-12T13:12:04.245Z,7.43
2018-04-12T13:15:07.530Z,9.67
2018-04-12T13:18:10.712Z,8.93
2018-04-12T13:21:13.937Z,8.47
2018-04-12T13:24:17.132Z,9.77
2018-04-12T13:27:20.528Z,8.20
2018-04-12T13:30:24.010Z,9.00
2018-04-12T13:33:27.411Z,10.30
2018-04-12T13:36:30.540Z,8.53
2018-04-12T13:39:33.913Z,8.53
2018-04-12T13:42:37.374Z,8.17
2018-04-12T13:45:40.697Z,9.70
2018-04-12T13:48:44.059Z,9.93
2018-04-12T13:51:47.291Z,8.00
2018-04-12T13:54:50.755Z,8.73
2018-04-12T13:57:53.968Z,9.07
2018-04-12T14:00:57.272Z,15.87
2018-04-12T14:04:00.600Z,9.30
2018-04-12T14:07:04.139Z,10.63
2018-04-12T14:10:07.415Z,10.30
2018-04-12T14:13:10.752Z,10.80
2018-04-12T14:16:14.068Z,11.30
2018-04-12T14:19:17.623Z,9.00
2018-04-12T14:22:20.897Z,7.13
2018-04-12T14:25:24.245Z,7.93
2018-04-12T14:28:27.560Z,10.90
2018-04-12T14:31:31.329Z,9.30
2018-04-12T14:34:34.664Z,14.83
2018-04-12T14:37:37.867Z,9.33
2018-04-12T14:40:41.189Z,8.73
2018-04-12T14:43:44.312Z,11.50
2018-04-12T14:46:47.657Z,6.63
2018-04-12T14:49:51.038Z,10.37
2018-04-12T14:52:54.373Z,9.63
2018-04-12T14:55:57.582Z,9.40
2018-04-12T14:59:00.765Z,9.03
2018-04-12T15:02:04.996Z,8.83
2018-04-12T15:05:08.340Z,8.83
2018-04-12T15:08:11.539Z,9.47
2018-04-12T15:11:14.841Z,12.20
2018-04-12T15:14:18.251Z,10.87
2018-04-12T15:17:21.413Z,13.10
2018-04-12T15:20:24.710Z,10.23
2018-04-12T15:23:28.078Z,10.10
2018-04-12T15:26:31.399Z,10.57
2018-04-12T15:29:34.673Z,9.37
2018-04-12T15:32:38.630Z,7.87
2018-04-12T15:35:41.944Z,9.90
2018-04-12T15:38:45.343Z,7.83
2018-04-12T15:41:48.641Z,9.27
2018-04-12T15:44:51.912Z,9.30
2018-04-12T15:47:55.331Z,8.93
2018-04-12T15:50:58.547Z,10.13
2018-04-12T15:54:01.731Z,6.13
2018-04-12T15:57:05.101Z,9.30
2018-04-12T16:00:08.257Z,6.77
2018-04-12T16:03:11.445Z,7.00
2018-04-12T16:06:14.632Z,7.63
2018-04-12T16:09:17.995Z,7.47
2018-04-12T16:12:21.322Z,10.63
2018-04-12T16:15:24.585Z,5.00
2018-04-12T16:18:27.803Z,7.80
2018-04-12T16:21:30.998Z,9.97
2018-04-12T16:24:34.283Z,7.03
2018-04-12T16:27:37.720Z,4.33
2018-04-12T16:30:41.044Z,11.23
2018-04-12T16:33:44.512Z,5.40
2018-04-12T16:36:47.706Z,7.63
2018-04-12T16:39:51.108Z,6.73
2018-04-12T16:42:54.411Z,6.70
2018-04-12T16:45:57.807Z,5.53
2018-04-12T16:49:01.196Z,13.57
2018-04-12T16:52:04.449Z,8.20
2018-04-12T16:55:07.788Z,6.50
2018-04-12T16:58:11.193Z,8.30
2018-04-12T17:01:14.491Z,5.53
2018-04-12T17:04:17.834Z,6.30
2018-04-12T17:07:21.143Z,7.60
2018-04-12T17:10:24.509Z,8.07
2018-04-12T17:13:27.767Z,6.87
2018-04-12T17:16:31.177Z,6.20
2018-04-12T17:19:34.474Z,5.23
2018-04-12T17:22:37.765Z,6.57
2018-04-12T17:25:41.170Z,6.83
2018-04-12T17:28:44.466Z,6.37
2018-04-12T17:31:47.795Z,6.97
2018-04-12T17:34:51.092Z,4.67
2018-04-12T17:37:54.433Z,5.63
2018-04-12T17:40:57.736Z,4.40
2018-04-12T17:44:01.009Z,4.67
2018-04-12T17:47:04.366Z,6.00
2018-04-12T17:50:07.552Z,5.30
2018-04-12T17:53:10.859Z,4.70
2018-04-12T17:56:14.760Z,6.70
2018-04-12T17:59:18.087Z,4.73
2018-04-12T18:02:21.399Z,3.17
2018-04-12T18:05:24.874Z,4.60
2018-04-12T18:08:28.193Z,10.17
2018-04-12T18:11:32.562Z,11.73
2018-04-12T18:14:35.887Z,10.50
2018-04-12T18:17:39.567Z,6.73
2018-04-12T18:20:43.038Z,7.43
2018-04-12T18:23:46.253Z,8.23
2018-04-12T18:26:49.602Z,7.20
2018-04-12T18:29:52.919Z,10.90
2018-04-12T18:32:56.294Z,9.17
2018-04-12T18:35:59.578Z,6.63
2018-04-12T18:39:03.005Z,4.50
2018-04-12T18:42:06.315Z,6.20
2018-04-12T18:45:09.962Z,9.07
2018-04-12T18:48:13.406Z,4.93
2018-04-12T18:51:18.119Z,5.70
2018-04-12T18:54:21.522Z,7.43
2018-04-12T18:57:24.793Z,5.87
2018-04-12T19:00:28.186Z,5.30
2018-04-12T19:03:31.659Z,5.97
2018-04-12T19:06:35.195Z,5.67
2018-04-12T19:09:38.514Z,9.17
2018-04-12T19:12:41.939Z,6.33
2018-04-12T19:15:45.377Z,6.40
2018-04-12T19:18:48.730Z,5.53
2018-04-12T19:21:53.154Z,6.30
2018-04-12T19:24:56.571Z,6.93
2018-04-12T19:27:59.922Z,6.83
2018-04-12T19:31:03.522Z,8.37
2018-04-12T19:34:07.973Z,10.03
2018-04-12T19:37:11.183Z,8.43
2018-04-12T19:40:14.628Z,7.30
2018-04-12T19:43:18.048Z,7.70
2018-04-12T19:46:21.477Z,6.80
2018-04-12T19:49:24.819Z,10.43
2018-04-12T19:52:28.029Z,8.90
2018-04-12T19:55:32.094Z,7.10
2018-04-12T19:58:36.770Z,7.53
2018-04-12T20:01:41.531Z,8.63
2018-04-12T20:04:45.865Z,11.60
2018-04-12T20:07:50.988Z,9.77
2018-04-12T20:10:55.312Z,6.83
2018-04-12T20:14:00.299Z,9.47
2018-04-12T20:17:04.992Z,7.60
2018-04-12T20:20:08.520Z,7.87
2018-04-12T20:23:11.868Z,10.60
2018-04-12T20:26:15.319Z,9.07
2018-04-12T20:29:18.797Z,12.87
2018-04-12T20:32:22.256Z,10.73
2018-04-12T20:35:25.578Z,10.80
2018-04-12T20:38:28.792Z,11.27
2018-04-12T20:41:32.160Z,13.30
2018-04-12T20:44:35.472Z,13.77
2018-04-12T20:47:38.676Z,10.40
2018-04-12T20:50:41.832Z,9.37
2018-04-12T20:53:45.140Z,12.43
2018-04-12T20:56:48.435Z,8.27
2018-04-12T20:59:51.932Z,12.43
2018-04-12T21:02:55.289Z,12.50
2018-04-12T21:05:58.667Z,12.13
2018-04-12T21:09:02.054Z,12.40
2018-04-12T21:12:05.361Z,11.00
2018-04-12T21:15:09.098Z,11.90
2018-04-12T21:18:12.375Z,9.83
2018-04-12T21:21:15.759Z,11.50
2018-04-12T21:24:19.072Z,8.83
2018-04-12T21:27:22.582Z,7.57
2018-04-12T21:30:25.957Z,10.27
2018-04-12T21:33:30.921Z,10.37
2018-04-12T21:36:34.207Z,7.97
2018-04-12T21:39:37.613Z,10.63
2018-04-12T21:42:41.471Z,9.17
2018-04-12T21:45:44.732Z,12.70
2018-04-12T21:48:48.175Z,12.70
2018-04-12T21:51:51.584Z,13.43
2018-04-12T21:54:54.936Z,12.40
2018-04-12T21:57:58.324Z,13.50
2018-04-12T22:01:01.707Z,12.50
2018-04-12T22:04:05.004Z,12.13
2018-04-12T22:07:08.308Z,13.20
2018-04-12T22:10:11.669Z,13.67
2018-04-12T22:13:15.003Z,13.10
2018-04-12T22:16:18.298Z,10.80
2018-04-12T22:19:21.792Z,11.63
2018-04-12T22:22:25.104Z,11.20
2018-04-12T22:25:28.420Z,8.83
2018-04-12T22:28:31.808Z,18.00
2018-04-12T22:31:35.216Z,14.93
2018-04-12T22:34:38.506Z,13.27
2018-04-12T22:37:41.908Z,11.97
2018-04-12T22:40:45.192Z,12.17
2018-04-12T22:43:48.493Z,12.30
2018-04-12T22:46:51.885Z,11.53
2018-04-12T22:49:55.173Z,13.17
2018-04-12T22:52:58.461Z,11.30
2018-04-12T22:56:01.834Z,13.67
2018-04-12T22:59:05.104Z,12.40
2018-04-12T23:02:08.463Z,11.87
2018-04-12T23:05:11.674Z,10.60
2018-04-12T23:08:15.100Z,12.27
2018-04-12T23:11:18.443Z,15.93
2018-04-12T23:14:22.661Z,11.63
2018-04-12T23:17:25.896Z,10.30
2018-04-12T23:20:29.273Z,13.47
2018-04-12T23:23:32.637Z,11.47
2018-04-12T23:26:35.972Z,12.30
2018-04-12T23:29:39.189Z,11.27
2018-04-12T23:32:44.436Z,12.37
2018-04-12T23:35:47.798Z,13.53
2018-04-12T23:38:52.019Z,15.20
2018-04-12T23:41:55.415Z,17.30
2018-04-12T23:44:58.655Z,9.77
2018-04-12T23:48:02.005Z,15.43
2018-04-12T23:51:05.226Z,11.93
2018-04-12T23:54:08.608Z,11.23
2018-04-12T23:57:11.914Z,10.00
